ADDS METAR Data INFO
IDs: Format: Raw Decoded Include TAF

Data at: 1848 UTC 17 Oct 2017

KTCS 171753Z AUTO 17008KT 10SM CLR 22/05 A3031 RMK AO2 SLP201 T02220050 10222 20106 58006
KTCS 171653Z AUTO 00000KT 10SM CLR 21/05 A3033 RMK AO2 SLP208 T02060050
KTCS 171553Z AUTO 00000KT 10SM CLR 18/06 A3034 RMK AO2 SLP212 T01830056
KTCS 171453Z AUTO 00000KT 10SM CLR 16/05 A3033 RMK AO2 SLP210 T01610050 53007
KTCS 171353Z AUTO 29007KT 10SM CLR 12/04 A3031 RMK AO2 SLP209 T01170044
KTCS 171253Z AUTO 29007KT 10SM CLR 11/04 A3031 RMK AO2 SLP208 T01060039
KTCS 171153Z AUTO 28008KT 10SM CLR 12/04 A3031 RMK AO2 SLP201 T01170044 10144 20117 55005
KTCS 171053Z AUTO 28006KT 10SM CLR 13/05 A3030 RMK AO2 SLP197 T01330050
KTCS 170953Z AUTO 29007KT 10SM CLR 13/04 A3031 RMK AO2 SLP201 T01280044
KTCS 170853Z AUTO 29007KT 10SM CLR 13/04 A3032 RMK AO2 SLP206 T01330039 57003
KTCS 170753Z AUTO 29008KT 10SM CLR 14/04 A3033 RMK AO2 SLP206 T01390044
KTCS 170653Z AUTO 29007KT 10SM CLR 14/04 A3033 RMK AO2 SLP212 T01390039 402440072
KTCS 170553Z AUTO 29005KT 10SM CLR 14/03 A3033 RMK AO2 SLP213 T01440033 10239 20144 50002
KTCS 170453Z AUTO 27005KT 10SM CLR 16/04 A3034 RMK AO2 SLP214 T01610044
KTCS 170353Z AUTO 23004KT 10SM CLR 18/05 A3033 RMK AO2 SLP215 T01830050
KTCS 170253Z AUTO 20003KT 10SM CLR 19/04 A3033 RMK AO2 SLP215 T01940044 51008
KTCS 170153Z AUTO 00000KT 10SM CLR 21/04 A3032 RMK AO2 SLP217 T02060044
KTCS 170053Z AUTO 19004KT 10SM CLR 22/04 A3031 RMK AO2 SLP215 T02170039
KTCS 162353Z AUTO 20005KT 10SM CLR 24/02 A3030 RMK AO2 SLP205 T02390017 10244 20189 56012
KTCS 162253Z AUTO 19007KT 10SM CLR 24/02 A3031 RMK AO2 SLP203 T02440017
KTCS 162153Z AUTO 21008KT 10SM CLR 24/02 A3032 RMK AO2 SLP209 T02390022
KTCS 162053Z AUTO VRB03KT 10SM CLR 23/02 A3034 RMK AO2 SLP218 T02280017 58033
KTCS 161953Z AUTO 16004KT 10SM CLR 22/M01 A3038 RMK AO2 SLP232 T02221011
KTCS 161853Z AUTO VRB05KT 10SM CLR 21/M02 A3043 RMK AO2 SLP251 T02061017
KTCS 161753Z AUTO 00000KT 10SM CLR 19/M02 A3045 RMK AO2 SLP261 T01941017 10194 20072 58007
KTCS 161653Z AUTO 10003KT 10SM CLR 18/M03 A3048 RMK AO2 SLP266 T01781028
KTCS 161553Z AUTO 36004KT 10SM CLR 15/M03 A3048 RMK AO2 SLP275 T01501033
KTCS 161453Z AUTO 02006KT 10SM CLR 12/M03 A3048 RMK AO2 SLP271 T01221033 53013
KTCS 161353Z AUTO 34004KT 10SM CLR 09/M04 A3046 RMK AO2 SLP268 T00891044
KTCS 161253Z AUTO 32005KT 10SM CLR 07/M06 A3045 RMK AO2 SLP261 T00721056
KTCS 161153Z AUTO 32007KT 10SM CLR 08/M06 A3043 RMK AO2 SLP254 T00831061 10117 20083 55002
KTCS 161053Z AUTO 30007KT 10SM CLR 10/M06 A3043 RMK AO2 SLP249 T01001056
KTCS 160953Z AUTO 30006KT 10SM CLR 10/M06 A3043 RMK AO2 SLP248 T01001056
KTCS 160853Z AUTO 30007KT 10SM CLR 10/M05 A3044 RMK AO2 SLP252 T01001050 50001
KTCS 160753Z AUTO 29006KT 10SM CLR 10/M05 A3045 RMK AO2 SLP258 T01001050
KTCS 160653Z AUTO 29005KT 10SM CLR 11/M05 A3044 RMK AO2 SLP256 T01061050 402390106